ZBAA/PEK METAR and TAF weather

Enter ICAO airport designator
Station Type Date Time Source
ZBAA METAR 2019/10/15 08:30 UTC NOAA

ZBAA 150830Z 19003MPS CAVOK 16/M03 Q1030 NOSIG


Station Type Date Time Source
ZBAA Decoded METAR 2019/10/15 08:30 UTC NOAA

Beijing, China (ZBAA) 39-56N 116-17E 55M
Oct 15, 2019 - 04:30 AM EDT / 2019.10.15 0830 UTC
Wind: from the S (190 degrees) at 7 MPH (6 KT):0
Visibility: greater than 7 mile(s):0
Temperature: 60 F (16 C)
Dew Point: 26 F (-3 C)
Relative Humidity: 26%
Pressure (altimeter): 30.42 in. Hg (1030 hPa)
ob: ZBAA 150830Z 19003MPS CAVOK 16/M03 Q1030 NOSIG
cycle: 8

Station Type Date Time Source
ZBAA TAF 2019/10/15 06:03 UTC NOAA

TAF TAF ZBAA 150320Z 1506/1606 18004MPS CAVOK TX18/1507Z TN04/1522Z

Example: see airport list